CheckWX is a tool to help pilots better visualize weather data.  It is not intended as a substitute for an official pre-flight weather briefing.

09:19:42 UTC

EGWU METAR
RAF Northolt Airport
London, United Kingdom
Current

30 mins ago

EGWU 180850Z 28004KT 9999 FEW030 BKN180 18/11 Q1015 TEMPO 5000 SHRA RMK BLU TEMPO WHT
Observed
Jun-18 @ 08:50 UTC
Wind
  • 280° at 4 KTS
Visibility
10,000+ meters
Flight Rules
VFR
Cloud Levels
  • Few at 3,000' AGL
  • Broken at 18,000' AGL
Temperature
18°C / 64°F
Dewpoint
11°C / 52°F
Humidity
64%
Altimeter
29.97" Hg
Pressure
1014.92 hPa
Previous

30 mins ago

EGWU 180850Z 28004KT 9999 FEW030 BKN180 18/11 Q1015 TEMPO 5000 SHRA
Observed
Jun-18 @ 08:50 UTC
Wind
  • 280° at 4 KTS
Visibility
10,000+ meters
Flight Rules
VFR
Cloud Levels
  • Few at 3,000' AGL
  • Broken at 18,000' AGL
Temperature
18°C / 64°F
Dewpoint
11°C / 52°F
Humidity
64%
Altimeter
29.97" Hg
Pressure
1014.92 hPa
Previous

59 mins ago

EGWU 180821Z 19003KT 9999 FEW027 SCT160 BKN180 17/10 Q1015 NOSIG RMK BLU BLU
Observed
Jun-18 @ 08:21 UTC
Wind
  • 190° at 3 KTS
Visibility
10,000+ meters
Flight Rules
VFR
Cloud Levels
  • Few at 2,700' AGL
  • Scattered at 16,000' AGL
  • Broken at 18,000' AGL
Temperature
17°C / 63°F
Dewpoint
10°C / 50°F
Humidity
64%
Altimeter
29.97" Hg
Pressure
1014.92 hPa